ASA19A MMTJ-PANC
Flight info
| Callsign | ASA19A |
|---|---|
| Flight time | N/A |
| Altitude | 34000 |
| Route | TIJ4B TIJ J1 MZB DCT SLI J78 LAX J1 OAK/N0443F360 DCT ENI C1486 VESPA DCT ROUKE DCT PRETY DCT GUPEY DCT KATCH B453 MDO DCT YESKA YESKA6 |
| Aircraft | A320/M-SDE3FGHIRWY/LB1 |
Departure
| Time | 2026-04-20 20:32 |
|---|---|
| Airport | General Abelardo L. Rodriguez International Airport (MMTJ) |
Arrival
| Time | N/A |
|---|---|
| Airport | Ted Stevens Anchorage International Airport (PANC) |
| Time | Latitude | Longitude | Altitude | Speed | Heading |
|---|---|---|---|---|---|
| 2026-04-20 19:51 | 32.54451 | -116.97509 | 471 ft | 0 kts | 64° |
| 2026-04-20 20:16 | 32.54451 | -116.97510 | 470 ft | 2 kts | 64° |
| 2026-04-20 20:16 | 32.54444 | -116.97528 | 468 ft | 2 kts | 68° |
| 2026-04-20 20:16 | 32.54439 | -116.97546 | 470 ft | 2 kts | 75° |
| 2026-04-20 20:16 | 32.54436 | -116.97566 | 470 ft | 2 kts | 94° |
| 2026-04-20 20:17 | 32.54441 | -116.97584 | 469 ft | 2 kts | 155° |
| 2026-04-20 20:17 | 32.54453 | -116.97589 | 466 ft | 1 kts | 190° |
| 2026-04-20 20:19 | 32.54446 | -116.97590 | 464 ft | 3 kts | 191° |
| 2026-04-20 20:20 | 32.54438 | -116.97592 | 469 ft | 3 kts | 189° |
| 2026-04-20 20:20 | 32.54429 | -116.97593 | 470 ft | 2 kts | 187° |
| 2026-04-20 20:21 | 32.54401 | -116.97579 | 470 ft | 5 kts | 132° |
| 2026-04-20 20:21 | 32.54392 | -116.97551 | 470 ft | 3 kts | 101° |
| 2026-04-20 20:21 | 32.54387 | -116.97510 | 470 ft | 7 kts | 98° |
| 2026-04-20 20:21 | 32.54381 | -116.97463 | 468 ft | 5 kts | 98° |
| 2026-04-20 20:22 | 32.54374 | -116.97431 | 470 ft | 3 kts | 115° |
| 2026-04-20 20:22 | 32.54352 | -116.97414 | 470 ft | 7 kts | 156° |
| 2026-04-20 20:22 | 32.54325 | -116.97374 | 470 ft | 6 kts | 106° |
| 2026-04-20 20:22 | 32.54317 | -116.97322 | 470 ft | 8 kts | 99° |
| 2026-04-20 20:23 | 32.54309 | -116.97259 | 469 ft | 7 kts | 99° |
| 2026-04-20 20:23 | 32.54302 | -116.97208 | 470 ft | 7 kts | 98° |
| 2026-04-20 20:23 | 32.54293 | -116.97140 | 470 ft | 8 kts | 98° |
| 2026-04-20 20:23 | 32.54286 | -116.97083 | 470 ft | 6 kts | 98° |
| 2026-04-20 20:24 | 32.54281 | -116.97041 | 468 ft | 5 kts | 99° |
| 2026-04-20 20:24 | 32.54274 | -116.96993 | 470 ft | 5 kts | 99° |
| 2026-04-20 20:24 | 32.54268 | -116.96948 | 466 ft | 8 kts | 99° |
| 2026-04-20 20:24 | 32.54255 | -116.96857 | 470 ft | 14 kts | 99° |
| 2026-04-20 20:25 | 32.54241 | -116.96751 | 470 ft | 12 kts | 99° |
| 2026-04-20 20:25 | 32.54229 | -116.96660 | 470 ft | 10 kts | 98° |
| 2026-04-20 20:25 | 32.54219 | -116.96583 | 470 ft | 9 kts | 99° |
| 2026-04-20 20:25 | 32.54210 | -116.96521 | 468 ft | 7 kts | 99° |
| 2026-04-20 20:26 | 32.54199 | -116.96439 | 470 ft | 12 kts | 99° |
| 2026-04-20 20:26 | 32.54188 | -116.96352 | 470 ft | 10 kts | 99° |
| 2026-04-20 20:26 | 32.54178 | -116.96278 | 470 ft | 8 kts | 98° |
| 2026-04-20 20:26 | 32.54171 | -116.96220 | 470 ft | 6 kts | 98° |
| 2026-04-20 20:27 | 32.54163 | -116.96161 | 470 ft | 12 kts | 99° |
| 2026-04-20 20:27 | 32.54144 | -116.96022 | 470 ft | 20 kts | 99° |
| 2026-04-20 20:27 | 32.54124 | -116.95871 | 470 ft | 17 kts | 99° |
| 2026-04-20 20:27 | 32.54106 | -116.95739 | 470 ft | 15 kts | 99° |
| 2026-04-20 20:28 | 32.54096 | -116.95659 | 470 ft | 14 kts | 99° |
| 2026-04-20 20:28 | 32.54078 | -116.95520 | 470 ft | 12 kts | 99° |
| 2026-04-20 20:28 | 32.54066 | -116.95432 | 468 ft | 10 kts | 99° |
| 2026-04-20 20:28 | 32.54035 | -116.95393 | 470 ft | 6 kts | 191° |
| 2026-04-20 20:29 | 32.54006 | -116.95410 | 470 ft | 4 kts | 205° |
| 2026-04-20 20:29 | 32.53990 | -116.95418 | 470 ft | 1 kts | 205° |
| 2026-04-20 20:29 | 32.53961 | -116.95434 | 471 ft | 7 kts | 203° |
| 2026-04-20 20:29 | 32.53919 | -116.95453 | 471 ft | 6 kts | 211° |
| 2026-04-20 20:30 | 32.53907 | -116.95502 | 470 ft | 7 kts | 272° |
| 2026-04-20 20:30 | 32.53910 | -116.95517 | 470 ft | 0 kts | 280° |
| 2026-04-20 20:31 | 32.53910 | -116.95518 | 470 ft | 1 kts | 280° |
| 2026-04-20 20:31 | 32.53930 | -116.95680 | 469 ft | 52 kts | 278° |
| 2026-04-20 20:31 | 32.54021 | -116.96369 | 468 ft | 115 kts | 279° |
| 2026-04-20 20:31 | 32.54174 | -116.97509 | 490 ft | 161 kts | 277° |
| 2026-04-20 20:32 | 32.54318 | -116.98863 | 1044 ft | 171 kts | 266° |
| 2026-04-20 20:32 | 32.54119 | -117.00274 | 1691 ft | 177 kts | 256° |
| 2026-04-20 20:32 | 32.53777 | -117.01700 | 2354 ft | 182 kts | 254° |
| 2026-04-20 20:32 | 32.53375 | -117.03202 | 2642 ft | 201 kts | 252° |
| 2026-04-20 20:33 | 32.53239 | -117.04918 | 2912 ft | 220 kts | 282° |
| 2026-04-20 20:33 | 32.54023 | -117.06553 | 3211 ft | 244 kts | 320° |
| 2026-04-20 20:33 | 32.55516 | -117.07690 | 3587 ft | 265 kts | 330° |
| 2026-04-20 20:33 | 32.57164 | -117.08771 | 4281 ft | 274 kts | 331° |
| 2026-04-20 20:34 | 32.58859 | -117.09857 | 5036 ft | 280 kts | 331° |
| 2026-04-20 20:34 | 32.60588 | -117.10968 | 5796 ft | 285 kts | 331° |
| 2026-04-20 20:34 | 32.62344 | -117.12103 | 6559 ft | 290 kts | 331° |
| 2026-04-20 20:34 | 32.64123 | -117.13262 | 7294 ft | 294 kts | 330° |
| 2026-04-20 20:35 | 32.65922 | -117.14438 | 8065 ft | 296 kts | 330° |
| 2026-04-20 20:35 | 32.67120 | -117.15222 | 8573 ft | 298 kts | 330° |
| 2026-04-20 20:35 | 32.68945 | -117.16418 | 9364 ft | 301 kts | 330° |
| 2026-04-20 20:35 | 32.70787 | -117.17630 | 10156 ft | 305 kts | 330° |
| 2026-04-20 20:36 | 32.72703 | -117.18896 | 10417 ft | 327 kts | 329° |
| 2026-04-20 20:36 | 32.74762 | -117.20256 | 10621 ft | 349 kts | 329° |
| 2026-04-20 20:36 | 32.76914 | -117.21674 | 11144 ft | 357 kts | 329° |
| 2026-04-20 20:36 | 32.79054 | -117.23200 | 11804 ft | 361 kts | 324° |
| 2026-04-20 20:37 | 32.81164 | -117.24920 | 12503 ft | 364 kts | 323° |
| 2026-04-20 20:37 | 32.83228 | -117.26611 | 13187 ft | 367 kts | 323° |
| 2026-04-20 20:37 | 32.85340 | -117.28346 | 13866 ft | 371 kts | 323° |
| 2026-04-20 20:37 | 32.87472 | -117.30100 | 14444 ft | 374 kts | 323° |
| 2026-04-20 20:38 | 32.89653 | -117.31889 | 15022 ft | 378 kts | 323° |
| 2026-04-20 20:38 | 32.91828 | -117.33672 | 15594 ft | 381 kts | 323° |
| 2026-04-20 20:38 | 32.94023 | -117.35471 | 16163 ft | 385 kts | 323° |
| 2026-04-20 20:38 | 32.96239 | -117.37289 | 16723 ft | 388 kts | 322° |
| 2026-04-20 20:39 | 32.98472 | -117.39123 | 17287 ft | 392 kts | 322° |
| 2026-04-20 20:39 | 33.00727 | -117.40978 | 17833 ft | 395 kts | 322° |
| 2026-04-20 20:39 | 33.02969 | -117.42821 | 18372 ft | 399 kts | 322° |
| 2026-04-20 20:39 | 33.05292 | -117.44731 | 18843 ft | 402 kts | 322° |
| 2026-04-20 20:40 | 33.07568 | -117.46601 | 19314 ft | 404 kts | 322° |
| 2026-04-20 20:40 | 33.09923 | -117.48540 | 19793 ft | 407 kts | 322° |
| 2026-04-20 20:40 | 33.12226 | -117.50439 | 20266 ft | 409 kts | 322° |
| 2026-04-20 20:40 | 33.14576 | -117.52375 | 20738 ft | 412 kts | 322° |
| 2026-04-20 20:41 | 33.16938 | -117.54323 | 21199 ft | 414 kts | 322° |
| 2026-04-20 20:41 | 33.19316 | -117.56284 | 21663 ft | 417 kts | 322° |
| 2026-04-20 20:41 | 33.21705 | -117.58257 | 22113 ft | 419 kts | 322° |
| 2026-04-20 20:41 | 33.24109 | -117.60248 | 22553 ft | 422 kts | 322° |
| 2026-04-20 20:42 | 33.26527 | -117.62255 | 22995 ft | 424 kts | 322° |
| 2026-04-20 20:42 | 33.28959 | -117.64274 | 23441 ft | 427 kts | 322° |
| 2026-04-20 20:42 | 33.31406 | -117.66303 | 23830 ft | 429 kts | 322° |
| 2026-04-20 20:42 | 33.33865 | -117.68343 | 24194 ft | 431 kts | 322° |
| 2026-04-20 20:43 | 33.36336 | -117.70396 | 24560 ft | 433 kts | 322° |
| 2026-04-20 20:43 | 33.38819 | -117.72458 | 24917 ft | 436 kts | 322° |
| 2026-04-20 20:43 | 33.41314 | -117.74532 | 25268 ft | 438 kts | 322° |
| 2026-04-20 20:43 | 33.43819 | -117.76616 | 25621 ft | 440 kts | 322° |
| 2026-04-20 20:44 | 33.46338 | -117.78712 | 25965 ft | 442 kts | 322° |
| 2026-04-20 20:44 | 33.48867 | -117.80820 | 26306 ft | 444 kts | 322° |
| 2026-04-20 20:44 | 33.51407 | -117.82939 | 26636 ft | 446 kts | 322° |
| 2026-04-20 20:44 | 33.53962 | -117.85071 | 26969 ft | 449 kts | 322° |
| 2026-04-20 20:45 | 33.56531 | -117.87215 | 27301 ft | 451 kts | 322° |
| 2026-04-20 20:45 | 33.59110 | -117.89370 | 27624 ft | 453 kts | 322° |
| 2026-04-20 20:45 | 33.61699 | -117.91535 | 27951 ft | 455 kts | 322° |
| 2026-04-20 20:45 | 33.64304 | -117.93713 | 28287 ft | 458 kts | 322° |
| 2026-04-20 20:46 | 33.66919 | -117.95898 | 28581 ft | 460 kts | 322° |
| 2026-04-20 20:46 | 33.69551 | -117.98101 | 28870 ft | 462 kts | 322° |
| 2026-04-20 20:46 | 33.72195 | -118.00321 | 29121 ft | 464 kts | 322° |
| 2026-04-20 20:46 | 33.74822 | -118.02589 | 29400 ft | 465 kts | 317° |
| 2026-04-20 20:47 | 33.77179 | -118.05221 | 29664 ft | 462 kts | 309° |
| 2026-04-20 20:47 | 33.79173 | -118.08233 | 29925 ft | 460 kts | 300° |
| 2026-04-20 20:47 | 33.80730 | -118.11468 | 30202 ft | 458 kts | 292° |
| 2026-04-20 20:47 | 33.82100 | -118.14928 | 30493 ft | 457 kts | 291° |
| 2026-04-20 20:48 | 33.83466 | -118.18368 | 30841 ft | 456 kts | 291° |
| 2026-04-20 20:48 | 33.84834 | -118.21810 | 31213 ft | 454 kts | 291° |
| 2026-04-20 20:48 | 33.86193 | -118.25224 | 31583 ft | 452 kts | 291° |
| 2026-04-20 20:48 | 33.87551 | -118.28637 | 31968 ft | 450 kts | 291° |
| 2026-04-20 20:49 | 33.88897 | -118.32032 | 32337 ft | 448 kts | 291° |
| 2026-04-20 20:49 | 33.90233 | -118.35409 | 32701 ft | 447 kts | 291° |
| 2026-04-20 20:49 | 33.91567 | -118.38776 | 33060 ft | 445 kts | 291° |
| 2026-04-20 20:49 | 33.93118 | -118.42016 | 33402 ft | 449 kts | 301° |
| 2026-04-20 20:50 | 33.95096 | -118.44945 | 33742 ft | 453 kts | 309° |
| 2026-04-20 20:50 | 33.97424 | -118.47521 | 34029 ft | 456 kts | 314° |
| 2026-04-20 20:50 | 34.02182 | -118.52524 | 34085 ft | 451 kts | 314° |
| 2026-04-20 20:51 | 34.06894 | -118.57509 | 34085 ft | 450 kts | 314° |
| 2026-04-20 20:51 | 34.11594 | -118.62502 | 34066 ft | 451 kts | 314° |
| 2026-04-20 20:52 | 34.16301 | -118.67500 | 34067 ft | 451 kts | 314° |
| 2026-04-20 20:52 | 34.20992 | -118.72474 | 34068 ft | 452 kts | 314° |
| 2026-04-20 20:53 | 34.25742 | -118.77520 | 34067 ft | 452 kts | 314° |
| 2026-04-20 20:53 | 34.30461 | -118.82557 | 34080 ft | 453 kts | 314° |
| 2026-04-20 20:54 | 34.35189 | -118.87599 | 34083 ft | 454 kts | 316° |
| 2026-04-20 20:54 | 34.40369 | -118.92060 | 34081 ft | 458 kts | 321° |
| 2026-04-20 20:55 | 34.45621 | -118.96430 | 34074 ft | 459 kts | 321° |
| 2026-04-20 20:55 | 34.50878 | -119.00826 | 34062 ft | 459 kts | 321° |
| 2026-04-20 20:56 | 34.56136 | -119.05239 | 34055 ft | 460 kts | 321° |
| 2026-04-20 20:56 | 34.61392 | -119.09661 | 34045 ft | 460 kts | 321° |
| 2026-04-20 20:57 | 34.66649 | -119.14089 | 34037 ft | 460 kts | 321° |
| 2026-04-20 20:57 | 34.71923 | -119.18524 | 34031 ft | 461 kts | 321° |
| 2026-04-20 20:58 | 34.77169 | -119.22945 | 34022 ft | 462 kts | 321° |